createdAt,value
2018-07-27T00:04:07.755Z,40.50
2018-07-27T00:09:12.598Z,40.60
2018-07-27T00:14:15.775Z,40.60
2018-07-27T00:19:18.974Z,40.70
2018-07-27T00:24:22.163Z,40.70
2018-07-27T00:29:25.346Z,40.80
2018-07-27T00:34:28.514Z,40.80
2018-07-27T00:39:31.703Z,40.80
2018-07-27T00:44:34.894Z,40.90
2018-07-27T00:49:38.084Z,40.80
2018-07-27T00:54:41.258Z,40.90
2018-07-27T00:59:44.422Z,41.00
2018-07-27T01:04:47.802Z,41.00
2018-07-27T01:09:51.015Z,41.00
2018-07-27T01:14:54.234Z,41.00
2018-07-27T01:19:57.430Z,41.00
2018-07-27T01:25:00.623Z,41.10
2018-07-27T01:30:04.540Z,41.10
2018-07-27T01:35:07.767Z,41.10
2018-07-27T01:40:10.976Z,41.10
2018-07-27T01:45:14.163Z,41.10
2018-07-27T01:50:17.387Z,41.20
2018-07-27T01:55:20.603Z,41.20
2018-07-27T02:00:23.803Z,41.90
2018-07-27T02:05:27.003Z,41.30
2018-07-27T02:10:30.205Z,41.30
2018-07-27T02:15:33.370Z,41.30
2018-07-27T02:20:36.510Z,41.40
2018-07-27T02:25:39.710Z,41.40
2018-07-27T02:30:42.843Z,41.50
2018-07-27T02:35:45.972Z,41.50
2018-07-27T02:40:49.091Z,41.60
2018-07-27T02:45:52.211Z,41.60
2018-07-27T02:50:55.376Z,41.60
2018-07-27T02:55:58.495Z,41.60
2018-07-27T03:01:01.623Z,41.60
2018-07-27T03:06:04.862Z,41.70
2018-07-27T03:11:08.047Z,41.70
2018-07-27T03:16:11.199Z,41.70
2018-07-27T03:21:14.323Z,41.70
2018-07-27T03:26:17.443Z,41.70
2018-07-27T03:31:20.559Z,41.80
2018-07-27T03:36:23.682Z,41.90
2018-07-27T03:41:26.798Z,42.60
2018-07-27T03:46:29.935Z,41.90
2018-07-27T03:51:33.067Z,42.00
2018-07-27T03:56:36.187Z,42.10
2018-07-27T04:01:39.327Z,42.10
2018-07-27T04:06:42.454Z,42.10
2018-07-27T04:11:45.587Z,42.20
2018-07-27T04:16:48.734Z,42.20
2018-07-27T04:21:51.871Z,42.30
2018-07-27T04:26:55.002Z,42.30
2018-07-27T04:31:58.126Z,42.30
2018-07-27T04:37:01.267Z,42.30
2018-07-27T04:42:04.403Z,42.40
2018-07-27T04:47:07.518Z,42.50
2018-07-27T04:52:10.655Z,42.50
2018-07-27T04:57:13.791Z,42.50
2018-07-27T05:02:16.924Z,42.50
2018-07-27T05:07:20.042Z,42.00
2018-07-27T05:12:23.170Z,42.70
2018-07-27T05:17:26.335Z,42.60
2018-07-27T05:22:29.454Z,42.80
2018-07-27T05:27:32.598Z,42.70
2018-07-27T05:32:35.807Z,42.70
2018-07-27T05:37:38.934Z,42.80
2018-07-27T05:42:42.068Z,42.80
2018-07-27T05:47:45.223Z,42.80
2018-07-27T05:52:48.411Z,42.90
2018-07-27T05:57:51.502Z,42.90
2018-07-27T06:02:54.675Z,43.00
2018-07-27T06:07:57.759Z,43.00
2018-07-27T06:13:01.727Z,43.10
2018-07-27T06:18:04.982Z,43.00
2018-07-27T06:23:08.112Z,43.10
2018-07-27T06:28:11.341Z,43.10
2018-07-27T06:33:14.447Z,43.20
2018-07-27T06:38:17.642Z,43.20
2018-07-27T06:43:20.822Z,43.10
2018-07-27T06:48:24.003Z,43.00
2018-07-27T06:53:27.174Z,43.10
2018-07-27T06:58:30.363Z,43.10
2018-07-27T07:03:33.609Z,43.10
2018-07-27T07:08:36.847Z,43.00
2018-07-27T07:13:40.019Z,43.00
2018-07-27T07:18:43.281Z,42.90
2018-07-27T07:23:46.462Z,42.80
2018-07-27T07:28:49.643Z,42.90
2018-07-27T07:33:52.822Z,42.70
2018-07-27T07:38:56.016Z,42.80
2018-07-27T07:43:59.199Z,42.60
2018-07-27T07:49:04.771Z,42.70
2018-07-27T07:54:07.946Z,42.60
2018-07-27T07:59:11.127Z,42.60
2018-07-27T08:04:14.333Z,42.60
2018-07-27T08:09:17.499Z,42.50
2018-07-27T08:14:20.674Z,42.50
2018-07-27T08:19:23.907Z,42.40
2018-07-27T08:24:27.108Z,42.60
2018-07-27T08:29:32.407Z,42.60
2018-07-27T08:34:35.599Z,42.20
2018-07-27T08:39:40.892Z,42.50
2018-07-27T08:44:44.056Z,41.80
2018-07-27T08:49:47.228Z,41.40
2018-07-27T08:54:50.399Z,41.10
2018-07-27T08:59:53.584Z,40.80
2018-07-27T09:04:56.747Z,41.00
2018-07-27T09:09:59.934Z,40.80
2018-07-27T09:15:03.183Z,40.60
2018-07-27T09:20:06.379Z,40.90
2018-07-27T09:25:09.887Z,40.30
2018-07-27T09:30:12.747Z,39.60
2018-07-27T09:35:16.027Z,40.90
2018-07-27T09:40:19.143Z,39.70
2018-07-27T09:45:22.511Z,39.20
2018-07-27T09:50:25.691Z,39.70
2018-07-27T09:55:28.879Z,39.20
2018-07-27T10:00:37.602Z,39.10
2018-07-27T10:05:40.797Z,37.90
2018-07-27T10:10:44.007Z,38.40
2018-07-27T10:15:47.138Z,38.50
2018-07-27T10:20:50.270Z,37.70
2018-07-27T10:25:53.476Z,37.40
2018-07-27T10:30:56.614Z,37.30
2018-07-27T10:35:59.743Z,36.70
2018-07-27T10:41:02.867Z,36.40
2018-07-27T10:46:06.509Z,36.00
2018-07-27T10:51:09.627Z,36.60
2018-07-27T10:56:12.759Z,36.10
2018-07-27T11:01:15.888Z,36.30
2018-07-27T11:06:19.008Z,36.90
2018-07-27T11:16:25.164Z,35.60
2018-07-27T11:21:28.275Z,35.20
2018-07-27T11:26:31.406Z,35.00
2018-07-27T11:31:34.545Z,35.20
2018-07-27T11:36:37.678Z,35.70
2018-07-27T11:41:41.062Z,35.90
2018-07-27T11:46:44.195Z,35.50
2018-07-27T11:51:47.331Z,35.50
2018-07-27T11:56:50.460Z,35.30
2018-07-27T12:01:53.599Z,34.10
2018-07-27T12:06:56.788Z,34.00
2018-07-27T12:11:59.866Z,33.70
2018-07-27T12:17:03.058Z,33.70
2018-07-27T12:22:06.246Z,34.50
2018-07-27T12:27:09.450Z,34.60
2018-07-27T12:32:12.619Z,34.80
2018-07-27T12:37:15.821Z,33.10
2018-07-27T12:42:19.047Z,34.70
2018-07-27T12:47:22.239Z,33.40
2018-07-27T12:52:25.440Z,34.30
2018-07-27T12:57:28.622Z,33.90
2018-07-27T13:02:31.811Z,32.20
2018-07-27T13:07:35.041Z,34.60
2018-07-27T13:12:38.742Z,35.00
2018-07-27T13:17:41.936Z,35.10
2018-07-27T13:22:45.120Z,34.60
2018-07-27T13:27:48.303Z,32.10
2018-07-27T13:32:51.519Z,33.20
2018-07-27T13:37:54.707Z,31.80
2018-07-27T13:42:57.895Z,32.30
2018-07-27T13:48:01.038Z,32.10
2018-07-27T13:53:04.179Z,32.30
2018-07-27T13:58:07.851Z,33.40
2018-07-27T14:03:11.207Z,34.70
2018-07-27T14:08:14.335Z,34.40
2018-07-27T14:13:17.455Z,33.70
2018-07-27T14:18:20.663Z,32.50
2018-07-27T14:23:23.854Z,32.40
2018-07-27T14:28:27.051Z,32.10
2018-07-27T14:33:30.315Z,31.60
2018-07-27T14:38:33.495Z,30.50
2018-07-27T14:43:36.949Z,30.60
2018-07-27T14:48:40.130Z,31.60
2018-07-27T14:53:43.315Z,31.50
2018-07-27T14:58:46.552Z,31.30
2018-07-27T15:03:49.695Z,30.60
2018-07-27T15:08:52.878Z,30.30
2018-07-27T15:13:56.063Z,30.70
2018-07-27T15:18:59.264Z,29.90
2018-07-27T15:24:02.462Z,30.10
2018-07-27T15:29:05.671Z,30.60
2018-07-27T15:34:08.828Z,30.10
2018-07-27T15:39:11.994Z,30.30
2018-07-27T15:44:15.162Z,30.50
2018-07-27T15:49:18.331Z,29.90
2018-07-27T15:54:21.499Z,30.00
2018-07-27T15:59:24.678Z,29.70
2018-07-27T16:04:27.866Z,30.10
2018-07-27T16:09:31.051Z,30.00
2018-07-27T16:14:34.239Z,30.40
2018-07-27T16:24:40.363Z,30.80
2018-07-27T16:29:43.487Z,30.70
2018-07-27T16:34:46.621Z,31.10
2018-07-27T16:39:49.752Z,30.90
2018-07-27T16:44:52.866Z,31.30
2018-07-27T16:49:55.998Z,31.90
2018-07-27T16:54:59.139Z,31.00
2018-07-27T17:00:02.267Z,31.50
2018-07-27T17:05:05.595Z,31.60
2018-07-27T17:10:08.714Z,31.80
2018-07-27T17:15:11.951Z,32.30
2018-07-27T17:25:18.337Z,33.20
2018-07-27T17:30:21.430Z,33.40
2018-07-27T17:35:24.606Z,33.40
2018-07-27T17:40:27.791Z,33.80
2018-07-27T17:45:30.999Z,34.10
2018-07-27T17:50:34.190Z,34.40
2018-07-27T17:55:37.366Z,34.50
2018-07-27T18:00:40.587Z,34.40
2018-07-27T18:05:43.758Z,34.30
2018-07-27T18:10:46.955Z,34.40
2018-07-27T18:15:50.098Z,34.50
2018-07-27T18:20:53.227Z,34.60
2018-07-27T18:25:56.350Z,34.60
2018-07-27T18:30:59.491Z,34.60
2018-07-27T18:36:02.623Z,34.60
2018-07-27T18:41:05.742Z,34.50
2018-07-27T18:46:09.253Z,34.40
2018-07-27T18:51:12.339Z,34.60
2018-07-27T18:56:15.485Z,34.90
2018-07-27T19:01:18.599Z,34.90
2018-07-27T19:06:21.731Z,34.90
2018-07-27T19:11:25.763Z,35.10
2018-07-27T19:16:28.906Z,35.20
2018-07-27T19:21:32.036Z,35.30
2018-07-27T19:26:35.170Z,35.50
2018-07-27T19:31:38.307Z,35.60
2018-07-27T19:36:41.461Z,35.70
2018-07-27T19:41:44.558Z,35.70
2018-07-27T19:46:47.686Z,35.80
2018-07-27T19:51:50.818Z,35.80
2018-07-27T19:56:53.938Z,35.90
2018-07-27T20:01:57.250Z,35.60
2018-07-27T20:12:03.278Z,36.20
2018-07-27T20:17:06.482Z,35.50
2018-07-27T20:22:09.655Z,35.60
2018-07-27T20:27:12.827Z,35.60
2018-07-27T20:32:16.010Z,35.60
2018-07-27T20:37:19.288Z,35.80
2018-07-27T20:42:22.411Z,35.70
2018-07-27T20:47:25.594Z,35.80
2018-07-27T20:52:28.866Z,36.00
2018-07-27T20:57:32.039Z,36.00
2018-07-27T21:02:35.219Z,36.00
2018-07-27T21:07:38.679Z,36.20
2018-07-27T21:12:42.706Z,36.20
2018-07-27T21:17:45.843Z,36.30
2018-07-27T21:22:48.962Z,37.00
2018-07-27T21:27:52.078Z,36.40
2018-07-27T21:32:55.211Z,36.50
2018-07-27T21:37:58.359Z,36.60
2018-07-27T21:43:01.491Z,36.70
2018-07-27T21:48:04.646Z,36.80
2018-07-27T21:53:07.763Z,36.70
2018-07-27T21:58:10.895Z,37.00
2018-07-27T22:03:14.024Z,37.00
2018-07-27T22:08:17.140Z,37.00
2018-07-27T22:13:20.265Z,37.20
2018-07-27T22:18:23.466Z,37.30
2018-07-27T22:23:26.654Z,37.30
2018-07-27T22:28:29.822Z,37.40
2018-07-27T22:33:33.010Z,37.40
2018-07-27T22:38:36.186Z,37.40
2018-07-27T22:43:39.374Z,37.60
2018-07-27T22:48:42.555Z,37.60
2018-07-27T22:53:45.744Z,37.60
2018-07-27T22:58:48.910Z,37.80
2018-07-27T23:03:52.210Z,37.90
2018-07-27T23:08:55.378Z,37.90
2018-07-27T23:13:58.554Z,37.90
2018-07-27T23:19:01.707Z,38.00
2018-07-27T23:24:04.836Z,38.20
2018-07-27T23:29:07.989Z,38.20
2018-07-27T23:34:11.116Z,38.30
2018-07-27T23:39:14.572Z,38.30
2018-07-27T23:44:17.715Z,38.30
2018-07-27T23:49:20.830Z,38.40
2018-07-27T23:54:23.958Z,38.40
2018-07-27T23:59:27.087Z,38.50
